logo
Search for airport 
image banner adimage banner adimage banner ad
image banner ad

EGSW08 - Davidstow Moor

Located in , United Kingdom

ICAO - , IATA -

Data provided by Airmate  

General information

Coordinates: N50°38'11" W4°36'48"
Elevation is 970 feet MSL.
 
View others Airports in England

Operational data

Special qualification required
Current time UTC:
Current local time:
Weather at : EGHQ - Newquay ( 35 km )
METAR: EGHQ 062320Z AUTO VRB02KT 9999 NCD 04/03 Q1037
TAF: TAF EGHQ 062258Z 0700/0709 10005KT CAVOK
View NOTAMs / SUP AIP / TFR affecting this airport [VIEW]
Communications frequencies: [VIEW]

Runways:

RWY identifierQFULength (ft)Width (ft)SurfaceLDA (ft)
021256150CONC
201256150CONC
061571150CONC
241571150CONC
121423150CONC
301423150CONC

Airport contact information

Address: United Kingdom

Satellite view of EGSW08